Weather observations for the past three days for
Elizabethton Municipal Airport
Metric (Imperial)
Date Time (edt) Wind (kph) Vis. (km) Weather Sky Cond. Temperature (ºC) Relative Humidity Wind Chill (°C) Heat Index (°C) Pressure Precipitation (cm)
Air Dwpt 6 hour altimeter (cm) sea level (mb) 1 hr 3 hr 6 hr
Max. Min.
09 15:35 W 15 16.09 Mostly Cloudy BKN065 22 11 50% 75.84 0.0
09 15:15 Vrbl 11 G 24 16.09 Mostly Cloudy SCT055 BKN065 22 10 47% 75.84 0.0
09 14:55 W 17 G 30 16.09 Mostly Cloudy SCT050 BKN060 BKN070 22 9 44% 75.82 0.0
09 14:35 W 20 G 31 16.09 Mostly Cloudy FEW047 BKN055 BKN070 22 10 47% 75.84 0.0
09 14:15 W 13 G 30 16.09 Partly Cloudy FEW044 SCT050 22 11 50% 75.84 0.0
09 13:55 NW 17 16.09 A Few Clouds FEW044 FEW049 21 11 53% 75.84 0.0
09 13:15 W 15 16.09 A Few Clouds FEW039 FEW050 21 11 53% 75.87 0.0
09 12:55 W 19 G 28 16.09 A Few Clouds FEW039 21 11 53% 75.9 0.0
09 12:35 Vrbl 11 G 26 16.09 NULL NULL 20 11 56% 75.9 0.0
09 12:15 NW 15 16.09 Mostly Cloudy BKN038 BKN045 20 11 56% 75.92 0.0
09 11:55 Vrbl 11 16.09 NULL NULL 19 10 56% 75.92 0.0
09 11:35 Vrbl 11 16.09 Fair CLR 19 10 56% 75.9 0.0
09 11:15 W 11 G 22 16.09 A Few Clouds FEW070 19 10 56% 75.9 0.0
09 10:55 W 9 G 24 16.09 Mostly Cloudy SCT047 BKN070 18 9 56% 75.9 0.0
09 10:35 W 7 16.09 Overcast OVC049 18 9 56% 75.9 0.0
09 10:15 Calm 16.09 Overcast OVC050 17 9 60% 75.9 0.0
09 09:55 Calm 16.09 Overcast OVC048 16 9 63% 75.9 0.0
09 09:35 Calm 16.09 Mostly Cloudy BKN048 16 10 68% 75.9 0.0
09 09:15 Calm 16.09 Fair CLR 15 10 72% 75.9 0.0
09 08:55 Vrbl 6 16.09 Fair CLR 13 10 82% 75.9 0.0
09 08:35 E 7 16.09 Fair CLR 13 10 82% 75.92 0.0
09 08:15 Calm 16.09 Fair CLR 12 10 88% 75.95 0.0
09 07:55 Calm 16.09 A Few Clouds FEW100 11 10 94% 75.97 0.0
09 07:35 Calm 16.09 A Few Clouds FEW100 10 9 94% 76 0.0
09 07:15 Calm 16.09 Fair CLR 10 9 94% 75.97 0.0
09 06:55 Calm 16.09 Fair CLR 10 9 94% 75.95 0.0
09 06:35 Calm 16.09 Fair CLR 10 9 94% 75.92 0.0
09 06:15 Calm 16.09 Fair CLR 9 9 100% 75.9 0.0
09 05:55 Calm 16.09 Fair CLR 9 9 100% 75.92 0.0
09 05:35 Calm 16.09 Fair CLR 8 8 100% 75.9 0.0
09 05:15 Calm 16.09 Fair CLR 9 8 94% 75.9 0.0
09 04:55 Calm 16.09 Fair CLR 8 8 100% 75.9 0.0
09 04:35 Calm 16.09 Fair CLR 9 8 94% 75.9 0.0
09 04:15 Calm 16.09 Fair CLR 9 8 94% 75.92 0.0
09 03:55 Calm 16.09 Fair CLR 8 8 100% 75.9 0.0
09 03:35 Calm 16.09 Fair CLR 8 8 100% 75.92 0.0
09 03:15 Calm 16.09 Fair CLR 8 8 100% 75.92 0.0
09 02:55 Calm 16.09 Fair CLR 8 8 100% 75.95 0.0
09 02:35 Calm 16.09 Fair CLR 8 8 100% 75.97 0.0
09 02:15 Calm 16.09 A Few Clouds FEW046 8 8 100% 75.97 0.0
09 01:55 Calm 16.09 Mostly Cloudy BKN046 8 8 100% 76 0.0
09 01:35 Calm 16.09 Mostly Cloudy BKN046 8 8 100% 76.02 0.0
09 01:15 Calm 16.09 Partly Cloudy SCT046 9 8 94% 76.05 0.0
09 00:35 Calm 16.09 A Few Clouds FEW048 9 8 94% 76.02 0.0
09 00:15 Calm 16.09 A Few Clouds FEW047 9 8 94% 76.02 0.0
08 23:55 Calm 16.09 A Few Clouds FEW048 10 8 88% 76.05 0.0
08 23:35 Calm 16.09 A Few Clouds FEW048 10 8 88% 76.05 0.0
08 23:15 Calm 16.09 Partly Cloudy SCT050 10 9 94% 76.05 0.0
08 22:55 Calm 16.09 Partly Cloudy FEW041 SCT050 10 8 88% 76.05 0.0
08 22:35 Calm 16.09 Partly Cloudy SCT050 SCT055 11 8 82% 76.05 0.0
08 22:15 Calm 16.09 Partly Cloudy SCT050 SCT060 12 8 77% 76.05 0.0
08 21:55 Calm 16.09 Partly Cloudy SCT050 SCT055 11 8 82% 76.05 0.0
08 21:35 Calm 16.09 Partly Cloudy FEW047 SCT055 12 8 77% 76.02 0.0
08 21:15 Calm 16.09 Partly Cloudy SCT060 SCT070 12 8 77% 76.02 0.0
08 20:55 Calm 16.09 Partly Cloudy SCT055 13 8 72% 76 0.0
08 20:35 NW 7 16.09 Fair CLR 13 9 77% 76 0.0
08 20:15 NW 9 16.09 A Few Clouds FEW070 14 9 72% 76 0.0
08 19:55 W 7 16.09 Fair CLR 18 6 46% 75.97 0.0
08 19:35 NW 6 16.09 Fair CLR 19 7 46% 75.97 0.0
08 19:15 Calm 16.09 Fair CLR 20 4 35% 75.97 0.0
08 18:55 NW 6 16.09 Fair CLR 20 4 35% 75.97 0.0
08 18:35 W 11 16.09 Fair CLR 21 3 31% 75.97 0.0
08 18:15 Vrbl 6 16.09 Fair CLR 21 3 31% 75.97 0.0
08 17:55 Vrbl 7 16.09 Fair CLR 21 3 31% 75.97 0.0
08 17:35 Vrbl 7 16.09 Fair CLR 21 3 31% 75.92 0.0
08 17:15 Calm 16.09 Fair CLR 21 3 31% 75.95 0.0
08 16:55 W 13 16.09 Fair CLR 21 3 31% 75.97 0.0
08 16:15 Vrbl 9 16.09 Fair CLR 21 4 33% 76.02 0.0
08 15:55 Vrbl 11 16.09 Fair CLR 21 3 31% 76.05 0.0
08 15:35 W 11 16.09 Fair CLR 21 4 33% 76.07 0.0
08 15:15 Calm 16.09 Fair CLR 20 4 35% 76.07 0.0
08 14:55 E 6 16.09 Fair CLR 19 3 35% 76.12 0.0
08 14:35 Calm 16.09 Fair CLR 19 4 37% 76.12 0.0
08 14:15 NW 7 16.09 Fair CLR 19 4 37% 76.15 0.0
08 13:55 Calm 16.09 Fair CLR 19 0 28% 76.15 0.0
08 13:15 S 9 16.09 Fair CLR 18 0 30% 76.23 0.0
08 12:55 Calm 16.09 Fair CLR 18 0 30% 76.25 0.0
08 12:35 Calm 16.09 Fair CLR 17 1 34% 76.28 0.0
08 11:55 Calm 16.09 Fair CLR 16 2 39% 76.33 0.0
08 11:35 Calm 16.09 Fair CLR 16 1 36% 76.35 0.0
08 11:15 Calm 16.09 Fair CLR 15 3 45% 76.35 0.0
08 10:55 Calm 16.09 Fair CLR 16 2 39% 76.38 0.0
08 10:35 Calm 16.09 Fair CLR 14 3 48% 76.38 0.0
08 10:15 Calm 16.09 Fair CLR 14 6 59% 76.38 0.0
08 09:55 Calm 16.09 Fair CLR 13 6 63% 76.4 0.0
08 09:35 Calm 16.09 Fair CLR 11 6 72% 76.4 0.0
08 09:15 Vrbl 7 16.09 Fair CLR 10 6 76% 9 76.4 0.0
08 08:55 E 7 16.09 Fair CLR 10 6 76% 9 76.4 0.0
08 08:35 E 6 16.09 Fair CLR 9 6 82% 76.38 0.0
08 08:15 Calm 16.09 Fair CLR 8 7 93% 76.38 0.0
08 07:55 E 9 16.09 Fair CLR 6 6 100% 4 76.38 0.0
08 07:35 Calm 16.09 Fair CLR 5 5 100% 76.35 0.0
08 07:15 Calm 16.09 Partly Cloudy FEW005 SCT009 5 5 100% 76.33 0.0
08 06:55 Calm 14.48 Partly Cloudy SCT005 SCT013 4 4 100% 76.3 0.0
08 06:35 Calm 16.09 Fair CLR 4 4 100% 76.28 0.0
08 06:15 Calm 12.87 Fair CLR 4 4 100% 76.28 0.0
08 05:55 Calm 16.09 Fair CLR 4 4 100% 76.25 0.0
08 05:35 Calm 16.09 Fair CLR 5 5 100% 76.25 0.0
08 05:15 Calm 16.09 A Few Clouds FEW007 5 5 100% 76.25 0.0
08 04:55 Calm 12.87 Partly Cloudy SCT007 5 5 100% 76.23 0.0
08 04:35 Calm 0.80 Fog/Mist VV005 6 6 100% 76.23 0.0
08 04:15 Calm 0.40 Fog BKN002 BKN047 6 6 100% 76.23 0.0
08 03:55 Calm 0.24 Fog OVC002 7 7 100% 76.23 0.0
08 03:35 Calm 14.48 Partly Cloudy FEW003 FEW008 SCT050 7 7 100% 76.23 0.0
08 03:15 Calm 12.87 Mostly Cloudy BKN003 BKN007 8 8 100% 76.23 0.0
08 02:55 Calm 8.05 Fog/Mist OVC003 8 8 100% 76.23 0.0
08 02:35 Calm 11.27 Overcast OVC004 8 8 100% 76.25 0.0
08 02:15 Calm 8.05 Fog/Mist OVC004 8 8 100% 76.25 0.0
08 01:35 Calm 6.44 Fog/Mist FEW006 BKN060 8 8 100% 76.23 0.0
08 01:15 Calm 8.05 Fog/Mist SCT006 SCT012 BKN055 8 8 100% 76.25 0.0
08 00:55 Calm 11.27 Mostly Cloudy FEW006 SCT012 BKN017 9 9 100% 76.23 0.0
08 00:35 Calm 16.09 Overcast FEW006 BKN014 OVC060 10 10 100% 76.2 0.0
08 00:15 Calm 16.09 Overcast OVC014 10 10 100% 76.2 0.0
07 23:55 Calm 16.09 Overcast BKN016 OVC025 10 10 100% 76.17 0.0
07 23:35 Calm 16.09 Overcast BKN018 OVC026 10 10 100% 76.17 0.0
07 23:15 Calm 16.09 Overcast BKN019 OVC025 10 10 100% 76.17 0.0
07 22:55 Calm 16.09 Overcast OVC024 10 10 100% 76.17 0.0
07 22:35 Calm 16.09 Overcast OVC023 10 10 100% 76.15 0.0
07 22:15 Calm 14.48 Overcast OVC023 10 9 94% 76.15 0.0
07 21:55 Calm 14.48 Overcast BKN025 BKN034 OVC050 9 9 100% 76.12 0.0
07 21:35 Calm 12.87 Mostly Cloudy FEW033 SCT042 BKN050 9 8 94% 76.1 0.0
07 21:15 Calm 14.48 Mostly Cloudy SCT033 BKN042 BKN047 9 9 100% 76.07 0.0
07 20:55 Calm 14.48 A Few Clouds FEW034 FEW046 9 9 100% 76.05 0.0
07 20:35 Calm 16.09 Fair CLR 10 10 100% 76.02 0.0
07 20:15 Calm 16.09 Fair CLR 11 10 94% 76.02 0.0
07 19:55 Calm 16.09 A Few Clouds FEW042 FEW060 12 10 88% 76.02 0.0
07 19:15 NW 6 16.09 Partly Cloudy SCT055 13 9 77% 76.05 0.0
07 18:55 W 13 16.09 Partly Cloudy FEW033 SCT055 14 9 72% 76.05 0.0
07 18:35 SW 7 16.09 Mostly Cloudy SCT050 BKN055 14 9 72% 76.05 0.0
07 18:15 W 7 16.09 Mostly Cloudy FEW021 FEW032 BKN050 13 9 77% 76.02 0.0
07 17:55 SW 11 16.09 Mostly Cloudy FEW018 SCT022 BKN049 13 9 77% 76.02 0.0
07 17:35 SW 11 16.09 Overcast FEW017 BKN042 OVC048 13 10 82% 76 0.0
07 17:15 W 9 16.09 Overcast OVC039 13 10 82% 76 0.0
07 16:55 W 6 16.09 Overcast OVC038 12 10 88% 76 0.0
07 16:35 W 13 16.09 Overcast FEW021 FEW026 OVC036 12 10 88% 76 0.0
07 16:15 W 11 16.09 Overcast FEW021 OVC036 13 10 82% 75.97 0.0
07 15:55 W 19 16.09 Overcast FEW021 OVC035 13 9 77% 75.97 0.0
07 15:35 W 7 16.09 Overcast FEW018 OVC034 13 10 82% 75.97 0.0
07 15:15 W 7 12.87 Overcast BKN016 BKN025 OVC033 12 10 88% 76 0.0
07 14:55 W 17 4.83 Fog/Mist FEW009 SCT013 OVC035 12 11 94% 76 0.0
07 14:35 W 15 4.02 Fog/Mist FEW013 BKN036 12 11 94% 76.02 0.0
07 14:15 W 11 4.02 Fog/Mist SCT009 BKN013 OVC037 12 11 94% 76.02 0.0
07 13:55 W 13 G 28 4.83 Fog/Mist OVC008 12 10 88% 76.02 0.0
07 13:35 W 17 G 26 14.48 Mostly Cloudy BKN008 BKN016 BKN028 12 11 94% 76 0.0
07 13:15 W 19 11.27 Mostly Cloudy BKN016 BKN031 13 11 88% 75.97 0.0
07 12:55 W 19 14.48 Overcast BKN015 OVC032 13 11 88% 75.95 0.0
07 12:35 W 22 16.09 Overcast OVC014 13 11 88% 75.97 0.0
07 12:15 W 11 16.09 Overcast OVC013 13 11 88% 75.97 0.0
07 11:55 W 9 16.09 Overcast OVC013 13 11 88% 75.95 0.0
07 11:35 W 6 16.09 Overcast OVC013 13 12 94% 75.95 0.0
07 11:15 W 7 6.44 Light Drizzle Fog/Mist OVC014 13 12 94% 75.92 0.0
07 10:55 W 13 G 22 16.09 Overcast OVC014 13 12 94% 75.92 0.0
07 10:35 Vrbl 7 16.09 Overcast OVC014 14 12 88% 75.9 0.0
07 10:15 W 11 16.09 Overcast OVC012 13 12 94% 75.92 0.0
07 09:35 W 9 16.09 Overcast OVC014 13 13 100% 75.9 0.0
07 09:15 W 9 16.09 Overcast BKN012 OVC019 13 13 100% 75.92 0.0
07 08:55 SW 13 16.09 Overcast SCT009 BKN018 OVC024 13 13 100% 75.9 0.0 0.03
07 08:35 SW 9 16.09 Overcast SCT009 OVC017 13 13 100% 75.87 0.0
07 08:15 S 9 4.83 Fog/Mist FEW006 BKN012 OVC018 13 13 100% 75.9 0.0
07 07:55 W 6 G 19 4.83 Fog/Mist SCT007 OVC012 13 13 100% 75.92 0.0 0.05
07 07:35 SW 15 3.22 Light Rain Fog/Mist BKN007 OVC013 13 13 100% 75.9 0.0
07 07:15 Calm 16.09 Light Rain BKN008 OVC013 14 13 94% 75.87 0.0
07 06:55 SW 11 16.09 Overcast OVC011 14 14 100% 75.84 0.0
07 06:35 SW 9 16.09 Overcast FEW006 BKN012 OVC024 14 14 100% 75.79 0.0
07 06:15 SW 11 16.09 Overcast FEW005 OVC024 14 14 100% 75.82 0.0
07 05:55 SW 11 16.09 Overcast OVC023 15 15 100% 75.79 0.0 0.03
07 05:35 S 6 16.09 Overcast FEW008 SCT020 OVC024 15 15 100% 75.77 0.0
07 05:15 NE 7 14.48 Light Rain SCT009 BKN027 OVC055 16 16 100% 75.79 0.0
07 04:55 Calm 9.66 Light Rain Fog/Mist SCT008 BKN011 OVC029 17 17 100% 75.82 0.0 0.08
07 04:35 Calm 11.27 Light Rain BKN009 OVC016 17 17 100% 75.79 0.0
07 04:15 W 7 11.27 Light Rain BKN006 OVC011 17 17 100% 75.82 0.0
07 03:55 SW 6 14.48 Overcast OVC007 17 17 100% 75.82 0.0 0.03
07 03:35 Calm 16.09 Overcast BKN008 OVC012 17 17 100% 75.84 0.0
07 03:15 W 6 16.09 Overcast OVC012 17 17 100% 75.82 0.0
07 02:55 Calm 14.48 Overcast BKN013 BKN018 OVC027 17 17 100% 75.84 0.0 0.13
07 02:35 Calm 12.87 Light Rain FEW017 OVC026 17 17 100% 75.84 0.0
07 02:15 Calm 8.05 Light Rain Fog/Mist OVC024 17 17 100% 75.87 0.0
07 01:55 Calm 14.48 Light Rain BKN018 OVC023 17 17 100% 75.9 0.0
07 01:35 Calm 16.09 Overcast OVC017 17 17 100% 75.9 0.0
07 01:15 Calm 16.09 Overcast OVC017 17 17 100% 75.9 0.0
07 00:35 Calm 14.48 Overcast OVC014 17 17 100% 75.95 0.0
07 00:15 Calm 12.87 Light Rain OVC014 17 17 100% 76 0.0
06 23:15 Calm 16.09 Overcast OVC017 17 17 100% 76 0.0
06 22:55 Calm 16.09 Mostly Cloudy BKN018 BKN033 BKN042 17 17 100% 75.97 0.0 0.18
06 22:35 Calm 16.09 Mostly Cloudy SCT015 SCT034 BKN075 17 17 100% 75.95 0.0
06 22:15 NE 6 8.05 Light Rain Fog/Mist SCT012 BKN019 OVC070 17 17 100% 75.97 0.0
06 21:55 W 9 3.22 Heavy Rain Fog/Mist FEW011 OVC020 17 17 100% 76.1 0.0 0.15
06 21:35 NW 7 9.66 Light Rain Fog/Mist BKN023 OVC029 17 17 100% 76.05 0.0
06 21:15 Calm 11.27 Overcast BKN029 OVC037 17 16 94% 76.02 0.0
06 20:55 Calm 6.44 Light Rain Fog/Mist SCT028 OVC036 18 16 88% 76 0.0 0.03
06 20:35 NW 11 16.09 Light Drizzle OVC032 18 16 88% 76 0.0
06 20:15 NW 6 16.09 Light Drizzle OVC033 19 16 83% 75.92 0.0
06 19:55 W 7 G 19 16.09 Overcast OVC034 19 16 83% 75.92 0.0 0.05
06 19:35 W 13 9.66 Light Rain Haze SCT038 BKN044 OVC050 19 16 83% 75.92 0.0
06 19:15 W 15 G 24 16.09 Mostly Cloudy BKN042 BKN050 BKN110 21 15 69% 75.92 0.0
06 18:55 W 9 16.09 Mostly Cloudy BKN042 21 16 73% 75.87 0.0
06 18:15 Calm 16.09 Light Rain FEW035 FEW120 21 17 78% 75.84 0.0
06 17:55 Vrbl 7 16.09 Light Drizzle FEW036 FEW044 SCT060 21 17 78% 75.9 0.0
06 17:35 W 13 16.09 Light Drizzle SCT033 BKN038 BKN044 22 16 69% 75.92 0.0
06 17:15 Vrbl 9 G 24 16.09 Overcast BKN035 OVC047 22 16 69% 75.92 0.0
06 16:55 W 13 G 28 16.09 Mostly Cloudy SCT034 BKN039 BKN048 22 16 69% 75.92 0.0
06 16:35 W 13 G 22 16.09 Mostly Cloudy SCT037 SCT044 BKN049 23 16 65% 75.92 0.0
06 16:15 W 17 G 35 16.09 Mostly Cloudy BKN040 BKN048 BKN055 23 15 61% 75.9 0.0
06 15:55 W 20 G 30 16.09 Mostly Cloudy BKN038 BKN048 BKN055 23 15 61% 75.9 0.0
Date Time (edt) Wind (kph) Vis. (km) Weather Sky Cond. Air Dwpt Max. Min. Relative Humidity Wind Chill (°C) Heat Index (°C) altimeter (cm) sea level (mb) 1 hr 3 hr 6 hr
6 hour
Temperature (ºC) Pressure Precipitation (cm)